Time;durP1;ratioP1;P1;durP2;ratioP2;P2;SDS_P1;SDS_P2;PMS_P1;PMS_P2;Temp;Humidity;BMP_temperature;BMP_pressure;BME280_temperature;BME280_humidity;BME280_pressure;Samples;Min_cycle;Max_cycle;Signal;HPM_P1;HPM_P2
2024/01/29 00:00:09;;;;;;;2.80;2.03;;;21.60;29.90;;;;;;4932075;29;20423;-63
2024/01/29 00:02:36;;;;;;;4.40;1.83;;;21.50;29.80;;;;;;4930440;29;20424;-63
2024/01/29 00:05:03;;;;;;;4.45;2.10;;;21.50;29.80;;;;;;4928380;29;20079;-63
2024/01/29 00:07:30;;;;;;;3.00;1.95;;;21.50;29.80;;;;;;4931483;29;20305;-63
2024/01/29 00:09:58;;;;;;;3.15;1.83;;;21.40;29.80;;;;;;4933516;29;20431;-63
2024/01/29 00:12:27;;;;;;;3.20;2.05;;;21.40;29.80;;;;;;4925817;29;20059;-62
2024/01/29 00:14:55;;;;;;;3.83;2.03;;;21.30;29.80;;;;;;4930098;29;20052;-62
2024/01/29 00:17:22;;;;;;;5.55;2.22;;;21.30;29.80;;;;;;4932194;29;20514;-63
2024/01/29 00:19:49;;;;;;;4.43;2.55;;;21.30;29.80;;;;;;4933167;29;20051;-63
2024/01/29 00:22:32;;;;;;;3.97;2.08;;;21.20;29.80;;;;;;4932698;29;20056;-63
2024/01/29 00:24:59;;;;;;;3.75;2.20;;;21.20;30.10;;;;;;4932170;29;20400;-62
2024/01/29 00:27:27;;;;;;;3.25;2.17;;;21.20;29.80;;;;;;4933300;29;20062;-63
2024/01/29 00:29:56;;;;;;;3.17;2.03;;;21.20;29.80;;;;;;4927513;29;20071;-63
2024/01/29 00:32:23;;;;;;;3.38;2.15;;;21.10;29.80;;;;;;4929562;29;20052;-63
2024/01/29 00:34:52;;;;;;;2.63;2.05;;;21.10;29.80;;;;;;4931559;29;20060;-63
2024/01/29 00:37:19;;;;;;;3.13;1.70;;;21.10;29.90;;;;;;4932411;29;20071;-63
2024/01/29 00:39:47;;;;;;;3.72;2.03;;;21.10;29.90;;;;;;4932652;29;20071;-63
2024/01/29 00:42:14;;;;;;;2.53;1.77;;;21.20;30.00;;;;;;4932781;29;20058;-63
2024/01/29 00:44:44;;;;;;;4.18;1.92;;;21.20;30.00;;;;;;4932889;29;20067;-63
2024/01/29 00:47:11;;;;;;;3.13;1.80;;;21.20;30.00;;;;;;4933447;29;20059;-63
2024/01/29 00:49:39;;;;;;;2.88;1.85;;;21.20;30.00;;;;;;4931835;29;20063;-63
2024/01/29 00:52:06;;;;;;;2.83;1.80;;;21.30;30.00;;;;;;4935928;29;20480;-63
2024/01/29 00:54:34;;;;;;;2.70;1.73;;;21.30;30.00;;;;;;4930735;29;20055;-63
2024/01/29 00:57:01;;;;;;;2.40;1.65;;;21.40;30.10;;;;;;4928453;29;20051;-63
2024/01/29 00:59:28;;;;;;;2.50;1.65;;;21.40;30.10;;;;;;4931898;29;20059;-63
2024/01/29 01:01:56;;;;;;;3.70;1.90;;;21.40;30.00;;;;;;4930708;29;20047;-63
2024/01/29 01:04:23;;;;;;;2.30;1.73;;;21.50;30.00;;;;;;4935479;29;20056;-63
2024/01/29 01:06:51;;;;;;;2.85;1.55;;;21.50;30.00;;;;;;4930234;29;20055;-63
2024/01/29 01:09:18;;;;;;;2.55;1.73;;;21.50;30.00;;;;;;4931412;29;20059;-62
2024/01/29 01:11:45;;;;;;;2.95;1.98;;;21.50;30.00;;;;;;4922239;29;20533;-62
2024/01/29 01:14:12;;;;;;;2.55;1.75;;;21.60;30.00;;;;;;4926776;29;20054;-62
2024/01/29 01:16:40;;;;;;;3.45;2.00;;;21.50;29.90;;;;;;4932029;29;20066;-62
2024/01/29 01:19:08;;;;;;;2.33;1.67;;;21.60;29.90;;;;;;4930231;29;20067;-63
2024/01/29 01:21:36;;;;;;;3.35;2.10;;;21.60;29.90;;;;;;4930090;29;20048;-63
2024/01/29 01:24:03;;;;;;;1.92;1.58;;;21.50;29.80;;;;;;4925290;29;20400;-63
2024/01/29 01:26:31;;;;;;;2.55;1.70;;;21.60;29.80;;;;;;4922805;29;20052;-62
2024/01/29 01:28:59;;;;;;;3.10;1.98;;;21.50;29.80;;;;;;4926313;29;20048;-62
2024/01/29 01:31:26;;;;;;;3.22;1.67;;;21.50;29.80;;;;;;4929097;29;20633;-63
2024/01/29 01:33:53;;;;;;;2.03;1.70;;;21.50;29.80;;;;;;4932379;29;20051;-62
2024/01/29 01:36:55;;;;;;;3.05;1.77;;;21.50;29.80;;;;;;4928195;29;20056;-63
2024/01/29 01:39:22;;;;;;;2.85;1.90;;;21.50;29.70;;;;;;4930558;29;20055;-63
2024/01/29 01:41:51;;;;;;;3.25;1.90;;;21.40;29.70;;;;;;4930818;29;20063;-63
2024/01/29 01:44:18;;;;;;;4.45;1.98;;;21.40;29.70;;;;;;4927225;29;20082;-62
2024/01/29 01:46:46;;;;;;;3.58;2.13;;;21.40;29.70;;;;;;4932737;29;20062;-63
2024/01/29 01:49:13;;;;;;;4.43;2.40;;;21.40;29.70;;;;;;4930991;29;20059;-63
2024/01/29 01:51:40;;;;;;;3.03;2.08;;;21.40;29.70;;;;;;4936016;29;20047;-63
2024/01/29 01:54:10;;;;;;;3.33;2.17;;;21.40;29.80;;;;;;4935284;29;20051;-63
2024/01/29 01:56:38;;;;;;;2.25;1.67;;;21.30;29.70;;;;;;4926593;29;20048;-62
2024/01/29 01:59:07;;;;;;;2.17;1.88;;;21.30;29.80;;;;;;4933364;29;20051;-62
2024/01/29 02:01:35;;;;;;;2.90;1.92;;;21.30;29.80;;;;;;4927720;29;20051;-63
2024/01/29 02:04:02;;;;;;;2.75;1.95;;;21.20;29.70;;;;;;4929093;29;20063;-62
2024/01/29 02:06:30;;;;;;;3.72;1.95;;;21.20;29.80;;;;;;4931801;29;20056;-62
2024/01/29 02:08:57;;;;;;;3.03;2.00;;;21.20;29.80;;;;;;4932386;29;20104;-62
2024/01/29 02:11:25;;;;;;;3.20;2.10;;;21.10;29.80;;;;;;4931911;29;20043;-60
2024/01/29 02:13:52;;;;;;;3.17;2.13;;;21.10;29.80;;;;;;4928899;29;21013;-63
2024/01/29 02:16:20;;;;;;;2.60;2.00;;;21.10;29.80;;;;;;4930180;29;20709;-63
2024/01/29 02:18:47;;;;;;;4.22;2.10;;;21.10;29.80;;;;;;4935509;29;20118;-63
2024/01/29 02:21:14;;;;;;;2.90;1.85;;;21.00;29.80;;;;;;4925577;29;20060;-63
2024/01/29 02:23:45;;;;;;;5.20;2.17;;;21.00;29.80;;;;;;4929819;29;20055;-63
2024/01/29 02:26:12;;;;;;;3.67;2.28;;;21.00;29.80;;;;;;4932904;29;20487;-63
2024/01/29 02:28:40;;;;;;;3.08;1.90;;;21.00;29.80;;;;;;4929023;29;20067;-63
2024/01/29 02:31:07;;;;;;;3.00;1.90;;;21.00;29.90;;;;;;4926228;29;20099;-63
2024/01/29 02:33:34;;;;;;;3.30;1.98;;;21.00;29.90;;;;;;4927333;29;20048;-63
2024/01/29 02:36:01;;;;;;;2.92;1.92;;;21.00;30.00;;;;;;4929019;29;20059;-63
2024/01/29 02:38:29;;;;;;;2.63;1.83;;;21.00;30.00;;;;;;4924653;29;20051;-62
2024/01/29 02:40:57;;;;;;;4.07;2.03;;;21.00;30.00;;;;;;4925076;29;20602;-63
2024/01/29 02:43:24;;;;;;;3.60;2.03;;;21.00;30.00;;;;;;4929667;29;20056;-63
2024/01/29 02:45:52;;;;;;;3.13;2.03;;;21.00;30.00;;;;;;4937186;29;20052;-63
2024/01/29 02:48:19;;;;;;;3.60;2.13;;;21.10;30.00;;;;;;4927939;29;20058;-63
2024/01/29 02:50:46;;;;;;;2.92;1.98;;;21.10;30.10;;;;;;4931735;29;20060;-63
2024/01/29 02:53:13;;;;;;;2.50;1.90;;;21.10;30.10;;;;;;4926597;29;20052;-63
2024/01/29 02:55:41;;;;;;;2.75;1.80;;;21.20;30.10;;;;;;4930600;29;20055;-63
2024/01/29 02:58:09;;;;;;;3.22;2.00;;;21.20;30.10;;;;;;4926042;29;20058;-63
2024/01/29 03:00:36;;;;;;;2.70;2.00;;;21.30;30.10;;;;;;4923086;29;20055;-63
2024/01/29 03:03:04;;;;;;;3.00;1.83;;;21.30;30.10;;;;;;4927766;29;20051;-63
2024/01/29 03:05:31;;;;;;;2.85;2.10;;;21.30;30.00;;;;;;4933653;29;20052;-63
2024/01/29 03:07:58;;;;;;;2.58;1.90;;;21.40;30.00;;;;;;4934616;29;20059;-63
2024/01/29 03:10:26;;;;;;;2.83;2.00;;;21.40;30.00;;;;;;4920226;29;20051;-63
2024/01/29 03:12:54;;;;;;;4.20;2.15;;;21.40;30.00;;;;;;4923183;28;20052;-63
2024/01/29 03:15:23;;;;;;;2.55;1.63;;;21.40;30.00;;;;;;4920769;29;20055;-63
2024/01/29 03:17:51;;;;;;;4.15;1.98;;;21.40;30.00;;;;;;4924484;29;20058;-63
2024/01/29 03:20:18;;;;;;;3.42;2.08;;;21.40;30.00;;;;;;4924991;29;20415;-63
2024/01/29 03:22:45;;;;;;;3.15;1.85;;;21.40;29.90;;;;;;4929175;29;20050;-63
2024/01/29 03:25:12;;;;;;;2.50;1.67;;;21.40;29.90;;;;;;4927907;29;20086;-61
2024/01/29 03:27:39;;;;;;;4.15;2.03;;;21.40;29.90;;;;;;4929902;29;20059;-62
2024/01/29 03:30:07;;;;;;;2.45;1.90;;;21.40;29.90;;;;;;4928757;29;20059;-62
2024/01/29 03:32:36;;;;;;;4.55;2.08;;;21.40;29.90;;;;;;4927303;29;20392;-61
2024/01/29 03:35:03;;;;;;;3.10;2.10;;;21.40;29.90;;;;;;4922854;29;20061;-62
2024/01/29 03:37:31;;;;;;;3.40;2.03;;;21.40;29.80;;;;;;4929175;29;20059;-62
2024/01/29 03:39:58;;;;;;;4.32;2.20;;;21.30;29.80;;;;;;4928728;29;20055;-61
2024/01/29 03:42:25;;;;;;;2.67;2.00;;;21.30;29.80;;;;;;4930708;29;20412;-62
2024/01/29 03:44:52;;;;;;;3.13;2.00;;;21.30;29.80;;;;;;4930802;29;20417;-62
2024/01/29 03:47:19;;;;;;;2.85;2.05;;;21.30;29.80;;;;;;4925279;29;20515;-62
2024/01/29 03:49:48;;;;;;;2.58;1.65;;;21.30;29.80;;;;;;4925151;29;20555;-61
2024/01/29 03:52:15;;;;;;;2.95;2.00;;;21.20;29.80;;;;;;4922840;29;20052;-62
2024/01/29 03:54:42;;;;;;;4.38;2.10;;;21.20;29.80;;;;;;4922239;29;20058;-61
2024/01/29 03:57:09;;;;;;;3.78;2.05;;;21.20;29.80;;;;;;4930634;29;20072;-62
2024/01/29 03:59:36;;;;;;;3.13;2.13;;;21.20;29.80;;;;;;4929211;29;20060;-61
2024/01/29 04:02:04;;;;;;;2.80;2.10;;;21.20;29.80;;;;;;4919899;29;20080;-62
2024/01/29 04:04:31;;;;;;;2.90;2.10;;;21.10;29.80;;;;;;4923443;29;20051;-61
2024/01/29 04:07:00;;;;;;;2.75;1.90;;;21.10;29.80;;;;;;4928714;29;20055;-62
2024/01/29 04:09:27;;;;;;;3.05;1.92;;;21.10;29.80;;;;;;4922346;29;20047;-62
2024/01/29 04:11:54;;;;;;;3.10;2.25;;;21.00;29.80;;;;;;4931461;29;20075;-61
2024/01/29 04:14:22;;;;;;;3.80;2.13;;;21.00;29.80;;;;;;4928254;29;20522;-62
2024/01/29 04:16:49;;;;;;;3.67;2.05;;;21.00;29.80;;;;;;4932747;29;20063;-61
2024/01/29 04:19:16;;;;;;;2.97;1.90;;;21.00;29.90;;;;;;4933932;29;20059;-61
2024/01/29 04:21:44;;;;;;;3.63;2.25;;;20.90;29.90;;;;;;4927798;29;20056;-61
2024/01/29 04:24:13;;;;;;;3.97;2.35;;;20.90;29.90;;;;;;4931570;29;20225;-61
2024/01/29 04:26:40;;;;;;;6.22;2.15;;;20.90;29.90;;;;;;4930475;29;20066;-61
2024/01/29 04:29:08;;;;;;;9.70;2.47;;;20.90;30.00;;;;;;4929711;29;20067;-61
2024/01/29 04:31:36;;;;;;;3.88;2.10;;;20.80;30.00;;;;;;4935048;29;20399;-61
2024/01/29 04:34:03;;;;;;;9.32;2.17;;;20.90;30.10;;;;;;4930607;29;20056;-62
2024/01/29 04:36:31;;;;;;;12.68;2.60;;;20.90;30.10;;;;;;4933537;29;20060;-60
2024/01/29 04:38:58;;;;;;;11.68;2.50;;;20.90;30.10;;;;;;4936084;29;20055;-62
2024/01/29 04:41:29;;;;;;;8.50;2.40;;;21.00;30.10;;;;;;4922457;29;20484;-62
2024/01/29 04:43:57;;;;;;;13.23;3.75;;;21.00;29.90;;;;;;4933827;29;20051;-64
2024/01/29 04:46:24;;;;;;;53.35;29.00;;;21.00;29.80;;;;;;4949225;29;20059;-64
2024/01/29 04:48:52;;;;;;;60.20;27.95;;;21.00;29.70;;;;;;4930776;28;20058;-65
2024/01/29 04:51:20;;;;;;;40.33;18.70;;;21.10;29.70;;;;;;4915250;29;20487;-63
2024/01/29 04:53:48;;;;;;;27.33;14.38;;;21.10;29.70;;;;;;4911006;29;20397;-61
2024/01/29 04:56:15;;;;;;;19.58;11.45;;;21.20;29.80;;;;;;4919096;29;20415;-67
2024/01/29 04:58:43;;;;;;;18.38;9.75;;;21.20;29.80;;;;;;4927622;29;20055;-64
2024/01/29 05:01:11;;;;;;;14.88;9.10;;;21.20;29.80;;;;;;4921398;29;20067;-65
2024/01/29 05:03:38;;;;;;;13.57;8.23;;;21.30;29.80;;;;;;4922511;29;20065;-65
2024/01/29 05:06:06;;;;;;;15.38;7.78;;;21.30;29.80;;;;;;4920620;29;20056;-65
2024/01/29 05:08:33;;;;;;;15.70;7.32;;;21.30;29.90;;;;;;4917233;29;20048;-64
2024/01/29 05:11:00;;;;;;;10.63;7.25;;;21.40;29.90;;;;;;4918974;29;20056;-64
2024/01/29 05:13:27;;;;;;;14.57;7.38;;;21.40;29.90;;;;;;4922251;29;20062;-63
2024/01/29 05:15:56;;;;;;;9.65;5.57;;;21.40;30.00;;;;;;4914588;29;20417;-63
2024/01/29 05:18:23;;;;;;;40.47;23.40;;;21.50;30.40;;;;;;4921807;29;20483;-58
2024/01/29 05:20:51;;;;;;;86.05;48.15;;;21.50;29.90;;;;;;4922638;29;20066;-58
2024/01/29 05:23:18;;;;;;;84.80;48.40;;;21.50;29.80;;;;;;4921754;29;20048;-59
2024/01/29 05:25:45;;;;;;;56.85;32.90;;;21.60;29.70;;;;;;4919189;29;20412;-57
2024/01/29 05:28:13;;;;;;;46.13;24.67;;;21.70;29.70;;;;;;4920803;29;20420;-59
2024/01/29 05:30:40;;;;;;;35.92;19.83;;;21.70;29.80;;;;;;4923892;29;20063;-58
2024/01/29 05:33:09;;;;;;;26.33;16.40;;;21.70;29.80;;;;;;4921265;29;20063;-58
2024/01/29 05:35:37;;;;;;;26.35;16.17;;;21.80;29.80;;;;;;4914523;29;20056;-58
2024/01/29 05:38:04;;;;;;;23.27;13.85;;;21.80;29.80;;;;;;4920290;29;20064;-57
2024/01/29 05:40:31;;;;;;;22.42;13.15;;;21.80;29.80;;;;;;4924432;29;20067;-58
2024/01/29 05:42:58;;;;;;;24.35;13.20;;;21.80;29.70;;;;;;4915644;29;20056;-66
2024/01/29 05:45:26;;;;;;;19.42;12.13;;;21.90;29.80;;;;;;4911837;29;20059;-65
2024/01/29 05:47:53;;;;;;;20.25;11.40;;;21.90;29.80;;;;;;4922611;29;20059;-63
2024/01/29 05:50:22;;;;;;;17.35;10.43;;;21.90;29.80;;;;;;4914443;29;20056;-64
2024/01/29 05:52:49;;;;;;;17.10;9.63;;;21.90;29.80;;;;;;4916865;29;20068;-64
2024/01/29 05:55:16;;;;;;;21.35;9.98;;;21.90;29.70;;;;;;4920801;29;20064;-62
2024/01/29 05:57:43;;;;;;;14.07;8.68;;;21.90;29.70;;;;;;4918600;29;20052;-62
2024/01/29 06:00:12;;;;;;;12.00;7.70;;;21.90;29.70;;;;;;4916297;29;20067;-61
2024/01/29 06:02:42;;;;;;;36.78;18.75;;;21.90;29.80;;;;;;4918570;29;20059;-62
2024/01/29 06:05:11;;;;;;;110.90;62.17;;;21.80;29.60;;;;;;4919630;29;20052;-62
2024/01/29 06:07:40;;;;;;;112.65;65.60;;;21.80;29.40;;;;;;4920532;29;20491;-63
2024/01/29 06:10:10;;;;;;;79.65;47.50;;;21.80;29.20;;;;;;4919404;29;20060;-61
2024/01/29 06:12:37;;;;;;;64.60;33.83;;;21.70;29.20;;;;;;4915979;29;20481;-63
2024/01/29 06:15:05;;;;;;;50.78;29.90;;;21.70;29.30;;;;;;4918423;29;20056;-65
2024/01/29 06:17:32;;;;;;;50.60;25.95;;;21.70;29.40;;;;;;4920413;29;20505;-64
2024/01/29 06:19:59;;;;;;;44.03;24.27;;;21.60;29.50;;;;;;4916766;29;20056;-63
2024/01/29 06:22:26;;;;;;;41.55;22.77;;;21.60;29.50;;;;;;4917611;29;20056;-63
2024/01/29 06:24:55;;;;;;;32.40;20.48;;;21.60;29.50;;;;;;4914553;29;20056;-65
2024/01/29 06:27:22;;;;;;;37.53;19.70;;;21.50;29.50;;;;;;4915101;29;20060;-63
2024/01/29 06:29:49;;;;;;;33.20;18.17;;;21.50;29.50;;;;;;4917647;29;20055;-65
2024/01/29 06:32:16;;;;;;;26.30;12.93;;;21.50;29.60;;;;;;4918533;29;20064;-60
2024/01/29 06:34:44;;;;;;;14.75;7.10;;;21.50;29.30;;;;;;4921045;29;20048;-59
2024/01/29 06:37:11;;;;;;;9.65;5.50;;;21.50;28.80;;;;;;4914312;29;20052;-59
2024/01/29 06:39:38;;;;;;;32.20;17.48;;;21.40;28.60;;;;;;4919321;29;20058;-60
2024/01/29 06:42:07;;;;;;;121.75;68.10;;;21.40;28.80;;;;;;4916388;29;20075;-59
2024/01/29 06:44:34;;;;;;;90.75;53.90;;;21.40;28.90;;;;;;4917867;29;20519;-60
2024/01/29 06:47:01;;;;;;;62.30;37.35;;;21.40;29.10;;;;;;4921305;29;20497;-60
2024/01/29 06:49:30;;;;;;;44.22;27.70;;;21.40;29.30;;;;;;4917972;29;20492;-60
2024/01/29 06:51:58;;;;;;;40.58;22.55;;;21.30;29.40;;;;;;4915055;29;20056;-60
2024/01/29 06:54:25;;;;;;;35.47;20.52;;;21.40;29.50;;;;;;4915466;29;20048;-61
2024/01/29 06:56:53;;;;;;;37.58;19.40;;;21.40;29.60;;;;;;4917574;29;21107;-61
2024/01/29 06:59:24;;;;;;;26.70;16.50;;;21.40;29.70;;;;;;4916411;29;20057;-61
2024/01/29 07:01:52;;;;;;;28.73;15.88;;;21.50;29.70;;;;;;4918140;29;20048;-61
2024/01/29 07:04:19;;;;;;;27.38;15.20;;;21.50;29.70;;;;;;4915364;29;20048;-61
2024/01/29 07:06:46;;;;;;;22.25;12.68;;;21.50;29.70;;;;;;4917856;29;20052;-61
2024/01/29 07:09:15;;;;;;;25.10;12.40;;;21.60;29.80;;;;;;4913967;29;20052;-61
2024/01/29 07:11:42;;;;;;;22.02;12.20;;;21.60;29.80;;;;;;4915413;29;20051;-61
2024/01/29 07:14:09;;;;;;;27.50;12.10;;;21.60;29.80;;;;;;4920265;29;20056;-61
2024/01/29 07:16:38;;;;;;;80.47;14.30;;;21.60;29.80;;;;;;4912624;29;20051;-60
2024/01/29 07:19:05;;;;;;;32.70;11.98;;;21.60;29.80;;;;;;4915234;29;20056;-63
2024/01/29 07:21:32;;;;;;;28.27;12.30;;;21.60;29.90;;;;;;4912303;29;20044;-61
2024/01/29 07:23:59;;;;;;;21.73;10.25;;;21.60;30.00;;;;;;4910253;29;20056;-62
2024/01/29 07:26:26;;;;;;;26.00;9.98;;;21.60;29.90;;;;;;4916194;29;20060;-62
2024/01/29 07:28:54;;;;;;;24.23;9.13;;;21.60;29.90;;;;;;4911355;29;20071;-61
2024/01/29 07:31:21;;;;;;;20.63;8.95;;;21.70;29.90;;;;;;4914659;29;20055;-61
2024/01/29 07:33:50;;;;;;;19.33;7.68;;;21.60;30.00;;;;;;4910205;29;20056;-62
2024/01/29 07:36:17;;;;;;;20.17;8.55;;;21.60;30.00;;;;;;4917921;29;20420;-61
2024/01/29 07:38:44;;;;;;;15.02;7.43;;;21.60;29.90;;;;;;4916272;29;20090;-61
2024/01/29 07:41:11;;;;;;;18.63;7.60;;;21.60;29.90;;;;;;4918074;29;20048;-61
2024/01/29 07:43:38;;;;;;;14.77;7.68;;;21.50;29.90;;;;;;4913493;29;20138;-62
2024/01/29 07:46:07;;;;;;;14.68;7.47;;;21.50;29.90;;;;;;4925148;29;20421;-61
2024/01/29 07:48:35;;;;;;;15.65;6.50;;;21.60;30.00;;;;;;4917641;29;20059;-61
2024/01/29 07:51:03;;;;;;;15.13;6.95;;;21.60;30.00;;;;;;4907861;29;20060;-62
2024/01/29 07:53:30;;;;;;;10.40;5.85;;;21.60;30.00;;;;;;4920855;29;20059;-62
2024/01/29 07:55:58;;;;;;;10.82;5.85;;;21.60;30.10;;;;;;4914617;29;20563;-61
2024/01/29 07:58:25;;;;;;;9.98;5.65;;;21.60;30.00;;;;;;4910704;29;20063;-62
2024/01/29 08:00:52;;;;;;;22.38;5.80;;;21.60;30.00;;;;;;4922446;29;20496;-62
2024/01/29 08:03:19;;;;;;;23.15;6.55;;;21.70;30.00;;;;;;4915621;29;20048;-60
2024/01/29 08:05:46;;;;;;;15.82;5.82;;;21.70;30.10;;;;;;4925644;29;20489;-62
2024/01/29 08:08:15;;;;;;;19.92;5.70;;;21.70;30.00;;;;;;4921135;29;20047;-59
2024/01/29 08:10:42;;;;;;;27.08;5.93;;;21.70;29.30;;;;;;4917184;29;20063;-60
2024/01/29 08:13:09;;;;;;;10.10;4.85;;;21.70;29.00;;;;;;4925351;29;20051;-60
2024/01/29 08:15:36;;;;;;;19.30;5.07;;;21.60;28.70;;;;;;4920748;29;20059;-60
2024/01/29 08:18:04;;;;;;;22.35;5.13;;;21.50;28.80;;;;;;4919156;29;20060;-58
2024/01/29 08:20:31;;;;;;;15.65;4.60;;;21.50;29.20;;;;;;4913378;29;20420;-58
2024/01/29 08:22:59;;;;;;;17.58;4.60;;;21.40;29.30;;;;;;4919166;29;20070;-57
2024/01/29 08:25:28;;;;;;;10.63;4.07;;;21.40;29.40;;;;;;4915815;29;20062;-58
2024/01/29 08:27:55;;;;;;;11.00;4.28;;;21.40;29.50;;;;;;4917462;29;20401;-56
2024/01/29 08:30:22;;;;;;;10.02;3.92;;;21.30;29.60;;;;;;4912828;29;20052;-59
2024/01/29 08:32:49;;;;;;;12.40;4.55;;;21.30;29.70;;;;;;4922072;29;20109;-59
2024/01/29 08:35:17;;;;;;;16.42;4.40;;;21.30;29.80;;;;;;4919306;29;20074;-58
2024/01/29 08:37:44;;;;;;;70.40;44.35;;;21.30;29.80;;;;;;4925501;29;20059;-59
2024/01/29 08:40:12;;;;;;;92.03;54.50;;;21.30;29.70;;;;;;4915700;29;20063;-58
2024/01/29 08:42:40;;;;;;;61.35;35.58;;;21.30;29.60;;;;;;4913608;29;20462;-57
2024/01/29 08:45:08;;;;;;;43.90;22.38;;;21.30;29.60;;;;;;4915761;29;20421;-58
2024/01/29 08:47:35;;;;;;;31.63;17.83;;;21.30;29.50;;;;;;4914915;29;20054;-58
2024/01/29 08:50:03;;;;;;;21.05;11.00;;;21.40;29.50;;;;;;4916381;29;20067;-58
2024/01/29 08:52:30;;;;;;;17.05;9.52;;;21.40;29.30;;;;;;4920590;29;20055;-58
2024/01/29 08:54:57;;;;;;;24.58;11.10;;;21.40;29.30;;;;;;4918276;29;20051;-60
2024/01/29 08:57:25;;;;;;;21.17;11.63;;;21.40;29.50;;;;;;4914418;29;20079;-61
2024/01/29 08:59:53;;;;;;;17.23;10.52;;;21.40;29.60;;;;;;4920960;29;20056;-61
2024/01/29 09:02:21;;;;;;;16.08;9.18;;;21.40;29.60;;;;;;4917168;29;20067;-61
2024/01/29 09:04:48;;;;;;;14.55;9.25;;;21.40;30.00;;;;;;4918903;29;20047;-61
2024/01/29 09:07:17;;;;;;;12.57;7.60;;;21.50;29.70;;;;;;4920920;29;20082;-61
2024/01/29 09:09:46;;;;;;;53.17;29.73;;;21.50;29.70;;;;;;4918505;29;20416;-58
2024/01/29 09:12:13;;;;;;;107.25;60.40;;;21.50;29.70;;;;;;4914907;29;20063;-60
2024/01/29 09:14:40;;;;;;;90.95;49.88;;;21.50;29.70;;;;;;4921012;29;20054;-58
2024/01/29 09:17:09;;;;;;;61.05;32.58;;;21.50;29.60;;;;;;4920380;29;20063;-57
2024/01/29 09:19:36;;;;;;;35.03;20.08;;;21.50;29.60;;;;;;4916617;29;20052;-59
2024/01/29 09:22:03;;;;;;;20.35;12.38;;;21.50;29.90;;;;;;4919302;29;20051;-58
2024/01/29 09:24:30;;;;;;;19.95;10.82;;;21.40;29.30;;;;;;4914124;29;20059;-59
2024/01/29 09:26:58;;;;;;;13.52;8.07;;;21.40;29.30;;;;;;4913748;29;20060;-60
2024/01/29 09:29:25;;;;;;;21.88;8.80;;;21.40;29.10;;;;;;4913730;29;20531;-57
2024/01/29 09:31:52;;;;;;;17.15;7.75;;;21.40;29.20;;;;;;4913984;29;20051;-56
2024/01/29 09:34:24;;;;;;;13.88;7.50;;;21.40;29.20;;;;;;4913339;29;20063;-58
2024/01/29 09:36:51;;;;;;;12.27;6.97;;;21.30;29.10;;;;;;4913125;29;20060;-56
2024/01/29 09:39:19;;;;;;;12.20;6.35;;;21.30;29.20;;;;;;4909665;29;20060;-58
2024/01/29 09:41:47;;;;;;;17.52;7.20;;;21.30;29.20;;;;;;4913533;29;20067;-56
2024/01/29 09:44:14;;;;;;;17.20;7.25;;;21.30;29.20;;;;;;4910093;29;20055;-58
2024/01/29 09:46:42;;;;;;;21.65;7.03;;;21.30;29.50;;;;;;4910578;29;20048;-58
2024/01/29 09:49:09;;;;;;;18.58;6.60;;;21.20;29.50;;;;;;4913513;29;20052;-60
2024/01/29 09:51:38;;;;;;;22.67;5.75;;;21.20;29.50;;;;;;4914441;29;20066;-58
2024/01/29 09:54:06;;;;;;;25.00;7.35;;;21.20;29.60;;;;;;4908927;29;20067;-55
2024/01/29 09:56:33;;;;;;;13.02;5.65;;;21.20;29.70;;;;;;4913644;29;20056;-57
2024/01/29 09:59:01;;;;;;;13.90;5.57;;;21.20;29.70;;;;;;4916952;29;20060;-58
2024/01/29 10:01:28;;;;;;;13.55;5.93;;;21.20;29.70;;;;;;4912436;29;20056;-56
2024/01/29 10:03:55;;;;;;;11.38;5.72;;;21.20;29.70;;;;;;4917293;29;20064;-58
2024/01/29 10:06:23;;;;;;;17.45;5.15;;;21.20;29.70;;;;;;4913045;29;20491;-57
2024/01/29 10:08:52;;;;;;;13.57;4.95;;;21.30;29.70;;;;;;4914844;29;20063;-58
2024/01/29 10:11:19;;;;;;;7.93;4.40;;;21.30;29.70;;;;;;4910600;29;20056;-57
2024/01/29 10:13:48;;;;;;;9.27;4.25;;;21.30;29.60;;;;;;4913079;29;20063;-59
2024/01/29 10:16:15;;;;;;;23.83;4.63;;;21.30;29.60;;;;;;4911368;29;20078;-58
2024/01/29 10:18:42;;;;;;;10.80;4.72;;;21.40;29.70;;;;;;4920237;29;20063;-58
2024/01/29 10:21:09;;;;;;;20.00;4.90;;;21.40;29.70;;;;;;4918087;29;20386;-57
2024/01/29 10:23:37;;;;;;;14.15;4.22;;;21.50;29.80;;;;;;4913606;29;20048;-60
2024/01/29 10:26:05;;;;;;;24.27;7.70;;;21.50;29.90;;;;;;4919482;29;20630;-58
2024/01/29 10:28:32;;;;;;;29.75;16.80;;;21.50;30.00;;;;;;4913111;29;20063;-58
2024/01/29 10:31:00;;;;;;;57.40;32.60;;;21.60;30.00;;;;;;4910596;29;20048;-62
2024/01/29 10:33:28;;;;;;;59.08;33.38;;;21.60;30.00;;;;;;4915073;29;20072;-59
2024/01/29 10:35:58;;;;;;;48.67;29.13;;;21.70;30.00;;;;;;4911184;29;20052;-59
2024/01/29 10:38:29;;;;;;;37.97;21.65;;;21.80;30.00;;;;;;4917326;29;20056;-59
2024/01/29 10:40:59;;;;;;;30.35;17.98;;;21.80;29.90;;;;;;4913065;29;20075;-56
2024/01/29 10:43:36;;;;;;;28.15;15.60;;;21.90;29.80;;;;;;4909405;29;20072;-57
2024/01/29 10:46:09;;;;;;;20.80;12.15;;;21.90;29.70;;;;;;4911257;29;20052;-57
2024/01/29 10:48:37;;;;;;;19.35;10.82;;;22.00;29.70;;;;;;4904140;29;20132;-58
2024/01/29 10:51:06;;;;;;;15.75;9.68;;;22.00;29.60;;;;;;4910802;29;20052;-58
2024/01/29 10:53:34;;;;;;;15.50;8.60;;;22.10;29.60;;;;;;4923834;29;20059;-58
2024/01/29 10:56:02;;;;;;;15.63;9.25;;;22.10;29.50;;;;;;4912800;29;20067;-58
2024/01/29 10:58:31;;;;;;;14.20;9.38;;;22.10;29.50;;;;;;4912796;29;20056;-62
2024/01/29 11:01:01;;;;;;;19.20;8.90;;;22.10;29.70;;;;;;4912891;29;20063;-59
2024/01/29 11:03:29;;;;;;;26.00;7.72;;;22.10;29.80;;;;;;4910462;29;20063;-58
2024/01/29 11:05:59;;;;;;;27.20;6.80;;;22.10;29.70;;;;;;4913694;29;20059;-59
2024/01/29 11:08:32;;;;;;;12.55;6.10;;;22.10;29.50;;;;;;4909432;29;20536;-59
2024/01/29 11:11:00;;;;;;;8.57;5.25;;;22.10;29.50;;;;;;4911359;29;20052;-58
2024/01/29 11:13:31;;;;;;;20.27;5.30;;;22.10;29.50;;;;;;4916801;29;20056;-58
2024/01/29 11:15:59;;;;;;;23.70;5.93;;;22.10;29.70;;;;;;4911410;29;20059;-59
2024/01/29 11:18:33;;;;;;;9.40;5.03;;;22.00;29.70;;;;;;4915767;29;20051;-59
2024/01/29 11:21:01;;;;;;;16.73;5.57;;;21.90;29.90;;;;;;4920530;29;20463;-58
2024/01/29 11:23:29;;;;;;;14.15;4.97;;;21.90;30.00;;;;;;4927356;29;20064;-60
2024/01/29 11:25:59;;;;;;;14.15;4.75;;;21.90;30.00;;;;;;4907523;29;20052;-60
2024/01/29 11:28:26;;;;;;;11.13;4.70;;;21.90;30.20;;;;;;4909717;29;20060;-62
2024/01/29 11:30:56;;;;;;;13.68;4.22;;;21.80;30.10;;;;;;4916789;29;20052;-62
2024/01/29 11:33:24;;;;;;;12.20;5.13;;;21.80;30.20;;;;;;4913931;29;20052;-62
2024/01/29 11:35:55;;;;;;;11.05;4.80;;;21.70;30.20;;;;;;4918174;29;20051;-61
2024/01/29 11:38:23;;;;;;;6.25;4.13;;;21.70;30.20;;;;;;4917871;29;20425;-62
2024/01/29 11:40:51;;;;;;;10.00;4.95;;;21.70;30.30;;;;;;4921255;29;20066;-61
2024/01/29 11:43:20;;;;;;;8.88;4.15;;;21.70;30.40;;;;;;4919702;29;20055;-61
2024/01/29 11:45:48;;;;;;;8.13;4.40;;;21.60;30.40;;;;;;4925009;29;20070;-61
2024/01/29 11:48:18;;;;;;;10.52;5.00;;;21.60;30.50;;;;;;4918009;29;20054;-61
2024/01/29 11:50:47;;;;;;;6.32;4.00;;;21.50;30.50;;;;;;4915386;29;20067;-58
2024/01/29 11:53:15;;;;;;;6.47;4.30;;;21.50;30.60;;;;;;4951171;23;20055;-61
2024/01/29 11:55:44;;;;;;;6.05;4.20;;;21.50;30.70;;;;;;4957017;28;20416;-59
2024/01/29 11:58:13;;;;;;;6.60;4.30;;;21.50;30.80;;;;;;4959160;28;20055;-62
2024/01/29 12:00:42;;;;;;;6.78;4.35;;;21.50;30.80;;;;;;4962517;28;20055;-61
2024/01/29 12:03:10;;;;;;;7.90;4.13;;;21.50;30.90;;;;;;4953292;28;20067;-60
2024/01/29 12:05:40;;;;;;;6.90;3.78;;;21.50;31.00;;;;;;4955380;28;20401;-58
2024/01/29 12:08:13;;;;;;;14.05;3.78;;;21.50;31.20;;;;;;4953595;28;20066;-60
2024/01/29 12:10:41;;;;;;;9.88;4.05;;;21.50;31.50;;;;;;4949450;28;20073;-59
2024/01/29 12:13:12;;;;;;;12.05;4.00;;;21.50;31.50;;;;;;4956797;28;20496;-59
2024/01/29 12:15:39;;;;;;;11.45;3.58;;;21.50;31.70;;;;;;4950771;28;20066;-59
2024/01/29 12:18:09;;;;;;;11.90;4.05;;;21.50;31.80;;;;;;4954909;28;20051;-59
2024/01/29 12:20:38;;;;;;;11.55;4.10;;;21.50;31.70;;;;;;4955636;28;20507;-59
2024/01/29 12:23:05;;;;;;;10.23;3.67;;;21.50;31.70;;;;;;4957970;28;20055;-59
2024/01/29 12:25:36;;;;;;;9.52;3.70;;;21.50;31.70;;;;;;4955192;28;20058;-58
2024/01/29 12:28:04;;;;;;;19.65;4.35;;;21.50;31.70;;;;;;4951743;28;20051;-58
2024/01/29 12:30:31;;;;;;;7.75;3.53;;;21.50;31.80;;;;;;4956073;28;20058;-57
2024/01/29 12:33:00;;;;;;;7.93;4.20;;;21.50;31.80;;;;;;4957198;28;20063;-58
2024/01/29 12:35:28;;;;;;;9.50;4.07;;;21.50;31.80;;;;;;4955972;28;20059;-58
2024/01/29 12:38:06;;;;;;;10.07;3.67;;;21.50;31.90;;;;;;4958361;28;20054;-58
2024/01/29 12:40:33;;;;;;;8.10;4.00;;;21.50;32.00;;;;;;4945429;28;20054;-58